sensor_id;sensor_type;location;lat;lon;timestamp;P1;durP1;ratioP1;P2;durP2;ratioP2
67839;SDS011;54636;51.684;5.142;2022-08-03T00:01:43;9.18;;;2.83;;
67839;SDS011;54636;51.684;5.142;2022-08-03T00:04:09;12.18;;;3.08;;
67839;SDS011;54636;51.684;5.142;2022-08-03T00:06:35;6.13;;;3.15;;
67839;SDS011;54636;51.684;5.142;2022-08-03T00:09:02;14.68;;;3.00;;
67839;SDS011;54636;51.684;5.142;2022-08-03T00:11:28;10.13;;;2.67;;
67839;SDS011;54636;51.684;5.142;2022-08-03T00:13:53;10.43;;;3.00;;
67839;SDS011;54636;51.684;5.142;2022-08-03T00:16:19;9.25;;;3.25;;
67839;SDS011;54636;51.684;5.142;2022-08-03T00:18:44;7.80;;;3.20;;
67839;SDS011;54636;51.684;5.142;2022-08-03T00:21:10;9.07;;;3.10;;
67839;SDS011;54636;51.684;5.142;2022-08-03T00:23:35;10.48;;;3.60;;
67839;SDS011;54636;51.684;5.142;2022-08-03T00:26:01;10.02;;;3.05;;
67839;SDS011;54636;51.684;5.142;2022-08-03T00:28:27;5.53;;;2.33;;
67839;SDS011;54636;51.684;5.142;2022-08-03T00:30:52;8.90;;;2.92;;
67839;SDS011;54636;51.684;5.142;2022-08-03T00:33:19;8.38;;;3.25;;
67839;SDS011;54636;51.684;5.142;2022-08-03T00:35:45;6.20;;;3.00;;
67839;SDS011;54636;51.684;5.142;2022-08-03T00:38:10;5.25;;;2.50;;
67839;SDS011;54636;51.684;5.142;2022-08-03T00:40:35;6.55;;;2.70;;
67839;SDS011;54636;51.684;5.142;2022-08-03T00:43:02;9.43;;;3.00;;
67839;SDS011;54636;51.684;5.142;2022-08-03T00:45:33;14.30;;;3.85;;
67839;SDS011;54636;51.684;5.142;2022-08-03T00:48:03;12.73;;;4.80;;
67839;SDS011;54636;51.684;5.142;2022-08-03T00:50:31;8.45;;;3.60;;
67839;SDS011;54636;51.684;5.142;2022-08-03T00:52:59;8.73;;;2.90;;
67839;SDS011;54636;51.684;5.142;2022-08-03T00:55:27;13.18;;;3.72;;
67839;SDS011;54636;51.684;5.142;2022-08-03T00:57:52;13.18;;;3.08;;
67839;SDS011;54636;51.684;5.142;2022-08-03T01:00:19;11.23;;;3.45;;
67839;SDS011;54636;51.684;5.142;2022-08-03T01:02:46;13.93;;;3.15;;
67839;SDS011;54636;51.684;5.142;2022-08-03T01:05:14;9.90;;;3.13;;
67839;SDS011;54636;51.684;5.142;2022-08-03T01:16:00;13.45;;;3.55;;
67839;SDS011;54636;51.684;5.142;2022-08-03T01:21:02;10.77;;;3.20;;
67839;SDS011;54636;51.684;5.142;2022-08-03T01:23:53;15.55;;;3.53;;
67839;SDS011;54636;51.684;5.142;2022-08-03T01:29:44;11.93;;;3.63;;
67839;SDS011;54636;51.684;5.142;2022-08-03T01:32:17;13.63;;;3.80;;
67839;SDS011;54636;51.684;5.142;2022-08-03T01:34:47;8.75;;;3.40;;
67839;SDS011;54636;51.684;5.142;2022-08-03T01:37:21;9.65;;;4.28;;
67839;SDS011;54636;51.684;5.142;2022-08-03T01:39:50;9.32;;;3.97;;
67839;SDS011;54636;51.684;5.142;2022-08-03T01:42:21;10.05;;;3.58;;
67839;SDS011;54636;51.684;5.142;2022-08-03T01:44:49;12.70;;;4.20;;
67839;SDS011;54636;51.684;5.142;2022-08-03T01:47:17;12.00;;;4.00;;
67839;SDS011;54636;51.684;5.142;2022-08-03T01:49:45;6.10;;;3.38;;
67839;SDS011;54636;51.684;5.142;2022-08-03T01:52:12;9.65;;;3.88;;
67839;SDS011;54636;51.684;5.142;2022-08-03T01:54:42;14.90;;;4.18;;
67839;SDS011;54636;51.684;5.142;2022-08-03T01:57:09;9.85;;;4.30;;
67839;SDS011;54636;51.684;5.142;2022-08-03T01:59:35;10.45;;;3.92;;
67839;SDS011;54636;51.684;5.142;2022-08-03T02:02:03;11.50;;;3.85;;
67839;SDS011;54636;51.684;5.142;2022-08-03T02:04:29;11.40;;;4.78;;
67839;SDS011;54636;51.684;5.142;2022-08-03T02:06:56;15.60;;;5.70;;
67839;SDS011;54636;51.684;5.142;2022-08-03T02:09:23;10.35;;;3.75;;
67839;SDS011;54636;51.684;5.142;2022-08-03T02:11:50;9.55;;;3.78;;
67839;SDS011;54636;51.684;5.142;2022-08-03T02:14:17;9.52;;;4.28;;
67839;SDS011;54636;51.684;5.142;2022-08-03T02:16:44;8.50;;;4.25;;
67839;SDS011;54636;51.684;5.142;2022-08-03T02:19:10;10.13;;;4.28;;
67839;SDS011;54636;51.684;5.142;2022-08-03T02:21:36;8.45;;;3.55;;
67839;SDS011;54636;51.684;5.142;2022-08-03T02:24:03;15.05;;;4.45;;
67839;SDS011;54636;51.684;5.142;2022-08-03T02:26:29;6.82;;;4.03;;
67839;SDS011;54636;51.684;5.142;2022-08-03T02:28:59;9.43;;;4.05;;
67839;SDS011;54636;51.684;5.142;2022-08-03T02:31:29;12.25;;;4.32;;
67839;SDS011;54636;51.684;5.142;2022-08-03T02:33:59;11.90;;;4.07;;
67839;SDS011;54636;51.684;5.142;2022-08-03T02:36:29;9.63;;;4.13;;
67839;SDS011;54636;51.684;5.142;2022-08-03T02:38:59;7.22;;;4.32;;
67839;SDS011;54636;51.684;5.142;2022-08-03T02:41:33;13.98;;;4.40;;
67839;SDS011;54636;51.684;5.142;2022-08-03T02:44:03;17.35;;;4.60;;
67839;SDS011;54636;51.684;5.142;2022-08-03T02:46:33;11.23;;;4.80;;
67839;SDS011;54636;51.684;5.142;2022-08-03T02:49:02;18.17;;;5.18;;
67839;SDS011;54636;51.684;5.142;2022-08-03T02:51:31;14.20;;;4.65;;
67839;SDS011;54636;51.684;5.142;2022-08-03T02:53:59;10.98;;;4.28;;
67839;SDS011;54636;51.684;5.142;2022-08-03T02:56:27;16.60;;;4.72;;
67839;SDS011;54636;51.684;5.142;2022-08-03T02:58:52;14.43;;;4.60;;
67839;SDS011;54636;51.684;5.142;2022-08-03T03:01:20;7.45;;;4.43;;
67839;SDS011;54636;51.684;5.142;2022-08-03T03:03:47;10.32;;;4.68;;
67839;SDS011;54636;51.684;5.142;2022-08-03T03:06:14;8.95;;;3.97;;
67839;SDS011;54636;51.684;5.142;2022-08-03T03:08:41;18.92;;;4.93;;
67839;SDS011;54636;51.684;5.142;2022-08-03T03:11:08;13.38;;;4.75;;
67839;SDS011;54636;51.684;5.142;2022-08-03T03:13:35;9.10;;;4.30;;
67839;SDS011;54636;51.684;5.142;2022-08-03T03:16:01;8.60;;;4.72;;
67839;SDS011;54636;51.684;5.142;2022-08-03T03:18:30;10.95;;;4.45;;
67839;SDS011;54636;51.684;5.142;2022-08-03T03:20:57;8.77;;;4.15;;
67839;SDS011;54636;51.684;5.142;2022-08-03T03:23:23;16.60;;;5.40;;
67839;SDS011;54636;51.684;5.142;2022-08-03T03:25:50;15.52;;;4.68;;
67839;SDS011;54636;51.684;5.142;2022-08-03T03:28:16;13.05;;;4.40;;
67839;SDS011;54636;51.684;5.142;2022-08-03T03:30:42;8.65;;;4.25;;
67839;SDS011;54636;51.684;5.142;2022-08-03T03:33:08;8.48;;;4.07;;
67839;SDS011;54636;51.684;5.142;2022-08-03T03:35:33;9.57;;;3.83;;
67839;SDS011;54636;51.684;5.142;2022-08-03T03:37:59;9.35;;;3.85;;
67839;SDS011;54636;51.684;5.142;2022-08-03T03:40:25;10.50;;;4.32;;
67839;SDS011;54636;51.684;5.142;2022-08-03T03:42:51;11.95;;;3.45;;
67839;SDS011;54636;51.684;5.142;2022-08-03T03:45:17;9.88;;;3.63;;
67839;SDS011;54636;51.684;5.142;2022-08-03T03:47:44;9.15;;;3.67;;
67839;SDS011;54636;51.684;5.142;2022-08-03T03:50:09;8.93;;;4.18;;
67839;SDS011;54636;51.684;5.142;2022-08-03T03:52:35;12.57;;;4.72;;
67839;SDS011;54636;51.684;5.142;2022-08-03T03:55:00;18.02;;;4.70;;
67839;SDS011;54636;51.684;5.142;2022-08-03T03:57:26;10.45;;;4.10;;
67839;SDS011;54636;51.684;5.142;2022-08-03T03:59:52;11.32;;;4.22;;
67839;SDS011;54636;51.684;5.142;2022-08-03T04:02:17;13.43;;;4.00;;
67839;SDS011;54636;51.684;5.142;2022-08-03T04:04:42;16.50;;;4.82;;
67839;SDS011;54636;51.684;5.142;2022-08-03T04:07:26;9.30;;;3.53;;
67839;SDS011;54636;51.684;5.142;2022-08-03T04:10:16;10.23;;;3.63;;
67839;SDS011;54636;51.684;5.142;2022-08-03T04:13:05;12.73;;;3.93;;
67839;SDS011;54636;51.684;5.142;2022-08-03T04:15:37;5.65;;;3.88;;
67839;SDS011;54636;51.684;5.142;2022-08-03T04:18:03;6.00;;;3.33;;
67839;SDS011;54636;51.684;5.142;2022-08-03T04:20:32;9.55;;;4.00;;
67839;SDS011;54636;51.684;5.142;2022-08-03T04:23:01;13.27;;;4.07;;
67839;SDS011;54636;51.684;5.142;2022-08-03T04:25:29;9.73;;;4.25;;
67839;SDS011;54636;51.684;5.142;2022-08-03T04:27:57;10.07;;;3.43;;
67839;SDS011;54636;51.684;5.142;2022-08-03T04:30:27;9.60;;;3.72;;
67839;SDS011;54636;51.684;5.142;2022-08-03T04:32:56;13.63;;;4.28;;
67839;SDS011;54636;51.684;5.142;2022-08-03T04:35:26;10.30;;;3.83;;
67839;SDS011;54636;51.684;5.142;2022-08-03T04:37:55;7.00;;;3.78;;
67839;SDS011;54636;51.684;5.142;2022-08-03T04:40:26;11.82;;;4.30;;
67839;SDS011;54636;51.684;5.142;2022-08-03T04:42:54;7.10;;;4.05;;
67839;SDS011;54636;51.684;5.142;2022-08-03T04:45:20;11.05;;;3.70;;
67839;SDS011;54636;51.684;5.142;2022-08-03T04:47:46;7.65;;;3.45;;
67839;SDS011;54636;51.684;5.142;2022-08-03T04:50:14;10.88;;;3.85;;
67839;SDS011;54636;51.684;5.142;2022-08-03T04:52:40;7.82;;;3.13;;
67839;SDS011;54636;51.684;5.142;2022-08-03T04:55:05;8.63;;;3.08;;
67839;SDS011;54636;51.684;5.142;2022-08-03T04:57:31;9.10;;;3.10;;
67839;SDS011;54636;51.684;5.142;2022-08-03T04:59:56;10.73;;;3.38;;
67839;SDS011;54636;51.684;5.142;2022-08-03T05:02:22;9.38;;;3.40;;
67839;SDS011;54636;51.684;5.142;2022-08-03T05:04:48;8.35;;;3.00;;
67839;SDS011;54636;51.684;5.142;2022-08-03T05:07:15;9.98;;;3.35;;
67839;SDS011;54636;51.684;5.142;2022-08-03T05:09:41;6.97;;;3.38;;
67839;SDS011;54636;51.684;5.142;2022-08-03T05:12:07;12.88;;;3.90;;
67839;SDS011;54636;51.684;5.142;2022-08-03T05:14:33;9.52;;;3.30;;
67839;SDS011;54636;51.684;5.142;2022-08-03T05:17:02;8.10;;;3.30;;
67839;SDS011;54636;51.684;5.142;2022-08-03T05:19:28;7.28;;;3.17;;
67839;SDS011;54636;51.684;5.142;2022-08-03T05:21:54;12.18;;;3.55;;
67839;SDS011;54636;51.684;5.142;2022-08-03T05:24:19;12.13;;;3.00;;
67839;SDS011;54636;51.684;5.142;2022-08-03T05:26:45;12.43;;;3.17;;
67839;SDS011;54636;51.684;5.142;2022-08-03T05:29:10;8.85;;;3.00;;
67839;SDS011;54636;51.684;5.142;2022-08-03T05:31:35;9.77;;;2.92;;
67839;SDS011;54636;51.684;5.142;2022-08-03T05:34:01;10.85;;;2.92;;
67839;SDS011;54636;51.684;5.142;2022-08-03T05:36:26;19.00;;;3.75;;
67839;SDS011;54636;51.684;5.142;2022-08-03T05:38:52;5.18;;;2.35;;
67839;SDS011;54636;51.684;5.142;2022-08-03T05:41:18;10.82;;;2.75;;
67839;SDS011;54636;51.684;5.142;2022-08-03T05:43:43;10.65;;;2.97;;
67839;SDS011;54636;51.684;5.142;2022-08-03T05:46:09;7.97;;;3.15;;
67839;SDS011;54636;51.684;5.142;2022-08-03T05:48:35;7.38;;;2.88;;
67839;SDS011;54636;51.684;5.142;2022-08-03T05:51:00;12.18;;;2.92;;
67839;SDS011;54636;51.684;5.142;2022-08-03T05:53:25;11.73;;;3.28;;
67839;SDS011;54636;51.684;5.142;2022-08-03T05:55:51;11.90;;;2.92;;
67839;SDS011;54636;51.684;5.142;2022-08-03T05:58:16;15.15;;;3.33;;
67839;SDS011;54636;51.684;5.142;2022-08-03T06:00:42;8.88;;;2.85;;
67839;SDS011;54636;51.684;5.142;2022-08-03T06:03:07;13.07;;;3.45;;
67839;SDS011;54636;51.684;5.142;2022-08-03T06:05:33;13.07;;;3.17;;
67839;SDS011;54636;51.684;5.142;2022-08-03T06:08:00;8.35;;;2.60;;
67839;SDS011;54636;51.684;5.142;2022-08-03T06:10:29;12.45;;;3.30;;
67839;SDS011;54636;51.684;5.142;2022-08-03T06:12:54;12.30;;;3.10;;
67839;SDS011;54636;51.684;5.142;2022-08-03T06:15:20;9.70;;;2.92;;
67839;SDS011;54636;51.684;5.142;2022-08-03T06:17:46;11.85;;;2.35;;
67839;SDS011;54636;51.684;5.142;2022-08-03T06:20:15;18.38;;;3.67;;
67839;SDS011;54636;51.684;5.142;2022-08-03T06:22:47;14.70;;;3.30;;
67839;SDS011;54636;51.684;5.142;2022-08-03T06:25:13;17.65;;;3.22;;
67839;SDS011;54636;51.684;5.142;2022-08-03T06:27:38;11.88;;;3.40;;
67839;SDS011;54636;51.684;5.142;2022-08-03T06:30:05;15.63;;;3.67;;
67839;SDS011;54636;51.684;5.142;2022-08-03T06:32:32;20.70;;;4.22;;
67839;SDS011;54636;51.684;5.142;2022-08-03T06:34:58;18.73;;;3.05;;
67839;SDS011;54636;51.684;5.142;2022-08-03T06:37:24;12.45;;;2.85;;
67839;SDS011;54636;51.684;5.142;2022-08-03T06:39:51;12.18;;;2.85;;
67839;SDS011;54636;51.684;5.142;2022-08-03T06:42:16;15.80;;;2.58;;
67839;SDS011;54636;51.684;5.142;2022-08-03T06:44:42;15.68;;;3.35;;
67839;SDS011;54636;51.684;5.142;2022-08-03T06:47:07;16.58;;;3.10;;
67839;SDS011;54636;51.684;5.142;2022-08-03T06:49:32;12.30;;;2.92;;
67839;SDS011;54636;51.684;5.142;2022-08-03T06:51:58;18.73;;;3.30;;
67839;SDS011;54636;51.684;5.142;2022-08-03T06:54:23;12.75;;;3.17;;
67839;SDS011;54636;51.684;5.142;2022-08-03T06:56:48;21.33;;;3.88;;
67839;SDS011;54636;51.684;5.142;2022-08-03T06:59:14;11.52;;;3.35;;
67839;SDS011;54636;51.684;5.142;2022-08-03T07:01:40;18.98;;;3.55;;
67839;SDS011;54636;51.684;5.142;2022-08-03T07:04:08;17.55;;;3.38;;
67839;SDS011;54636;51.684;5.142;2022-08-03T07:06:33;11.50;;;2.85;;
67839;SDS011;54636;51.684;5.142;2022-08-03T07:08:59;15.05;;;4.55;;
67839;SDS011;54636;51.684;5.142;2022-08-03T07:11:25;6.57;;;1.70;;
67839;SDS011;54636;51.684;5.142;2022-08-03T07:13:52;12.82;;;2.97;;
67839;SDS011;54636;51.684;5.142;2022-08-03T07:16:18;23.73;;;3.70;;
67839;SDS011;54636;51.684;5.142;2022-08-03T07:18:43;13.13;;;2.58;;
67839;SDS011;54636;51.684;5.142;2022-08-03T07:21:08;14.25;;;2.92;;
67839;SDS011;54636;51.684;5.142;2022-08-03T07:23:35;17.70;;;3.90;;
67839;SDS011;54636;51.684;5.142;2022-08-03T07:26:00;16.35;;;2.90;;
67839;SDS011;54636;51.684;5.142;2022-08-03T07:28:25;12.10;;;2.78;;
67839;SDS011;54636;51.684;5.142;2022-08-03T07:30:52;16.38;;;2.88;;
67839;SDS011;54636;51.684;5.142;2022-08-03T07:33:17;13.40;;;3.67;;
67839;SDS011;54636;51.684;5.142;2022-08-03T07:35:42;18.90;;;3.20;;
67839;SDS011;54636;51.684;5.142;2022-08-03T07:38:08;16.80;;;2.53;;
67839;SDS011;54636;51.684;5.142;2022-08-03T07:40:33;15.20;;;2.95;;
67839;SDS011;54636;51.684;5.142;2022-08-03T07:42:59;23.58;;;3.08;;
67839;SDS011;54636;51.684;5.142;2022-08-03T07:45:24;19.08;;;3.08;;
67839;SDS011;54636;51.684;5.142;2022-08-03T07:47:50;16.65;;;3.03;;
67839;SDS011;54636;51.684;5.142;2022-08-03T07:50:16;17.55;;;2.88;;
67839;SDS011;54636;51.684;5.142;2022-08-03T07:52:41;13.70;;;2.90;;
67839;SDS011;54636;51.684;5.142;2022-08-03T07:55:12;12.57;;;2.55;;
67839;SDS011;54636;51.684;5.142;2022-08-03T07:57:38;13.32;;;4.20;;
67839;SDS011;54636;51.684;5.142;2022-08-03T08:00:04;14.48;;;4.38;;
67839;SDS011;54636;51.684;5.142;2022-08-03T08:04:58;10.75;;;2.65;;
67839;SDS011;54636;51.684;5.142;2022-08-03T08:07:24;16.85;;;3.30;;
67839;SDS011;54636;51.684;5.142;2022-08-03T08:09:50;14.48;;;2.97;;
67839;SDS011;54636;51.684;5.142;2022-08-03T08:12:15;11.50;;;2.63;;
67839;SDS011;54636;51.684;5.142;2022-08-03T08:14:41;17.33;;;3.03;;
67839;SDS011;54636;51.684;5.142;2022-08-03T08:17:09;20.55;;;3.17;;
67839;SDS011;54636;51.684;5.142;2022-08-03T08:19:35;13.95;;;2.85;;
67839;SDS011;54636;51.684;5.142;2022-08-03T08:22:00;18.30;;;3.30;;
67839;SDS011;54636;51.684;5.142;2022-08-03T08:24:25;16.80;;;3.03;;
67839;SDS011;54636;51.684;5.142;2022-08-03T08:26:51;12.80;;;3.17;;
67839;SDS011;54636;51.684;5.142;2022-08-03T08:29:16;18.38;;;3.72;;
67839;SDS011;54636;51.684;5.142;2022-08-03T08:31:44;17.05;;;3.35;;
67839;SDS011;54636;51.684;5.142;2022-08-03T08:34:09;15.80;;;2.75;;
67839;SDS011;54636;51.684;5.142;2022-08-03T08:36:34;22.90;;;3.78;;
67839;SDS011;54636;51.684;5.142;2022-08-03T08:39:00;21.95;;;4.28;;
67839;SDS011;54636;51.684;5.142;2022-08-03T08:41:26;18.83;;;3.78;;
67839;SDS011;54636;51.684;5.142;2022-08-03T08:43:52;19.42;;;3.58;;
67839;SDS011;54636;51.684;5.142;2022-08-03T08:46:18;11.80;;;2.97;;
67839;SDS011;54636;51.684;5.142;2022-08-03T08:48:44;13.98;;;3.08;;
67839;SDS011;54636;51.684;5.142;2022-08-03T08:51:12;19.15;;;2.88;;
67839;SDS011;54636;51.684;5.142;2022-08-03T08:53:40;16.23;;;2.92;;
67839;SDS011;54636;51.684;5.142;2022-08-03T08:56:08;18.67;;;3.90;;
67839;SDS011;54636;51.684;5.142;2022-08-03T08:58:40;13.85;;;2.97;;
67839;SDS011;54636;51.684;5.142;2022-08-03T09:01:13;12.73;;;2.85;;
67839;SDS011;54636;51.684;5.142;2022-08-03T09:03:38;14.02;;;2.92;;
67839;SDS011;54636;51.684;5.142;2022-08-03T09:06:04;17.45;;;3.45;;
67839;SDS011;54636;51.684;5.142;2022-08-03T09:08:31;18.60;;;2.95;;
67839;SDS011;54636;51.684;5.142;2022-08-03T09:10:57;10.85;;;3.05;;
67839;SDS011;54636;51.684;5.142;2022-08-03T09:13:23;18.25;;;3.15;;
67839;SDS011;54636;51.684;5.142;2022-08-03T09:16:03;11.02;;;2.83;;
67839;SDS011;54636;51.684;5.142;2022-08-03T09:18:39;19.23;;;3.15;;
67839;SDS011;54636;51.684;5.142;2022-08-03T09:21:19;14.57;;;3.45;;
67839;SDS011;54636;51.684;5.142;2022-08-03T09:23:46;10.15;;;2.70;;
67839;SDS011;54636;51.684;5.142;2022-08-03T09:26:21;8.00;;;2.70;;
67839;SDS011;54636;51.684;5.142;2022-08-03T09:29:09;16.55;;;2.95;;
67839;SDS011;54636;51.684;5.142;2022-08-03T09:31:36;16.92;;;3.03;;
67839;SDS011;54636;51.684;5.142;2022-08-03T09:34:04;17.85;;;3.00;;
67839;SDS011;54636;51.684;5.142;2022-08-03T09:36:34;13.40;;;2.80;;
67839;SDS011;54636;51.684;5.142;2022-08-03T09:39:04;16.25;;;3.17;;
67839;SDS011;54636;51.684;5.142;2022-08-03T09:41:32;14.35;;;2.63;;
67839;SDS011;54636;51.684;5.142;2022-08-03T09:43:58;13.85;;;2.80;;
67839;SDS011;54636;51.684;5.142;2022-08-03T09:46:23;7.80;;;2.67;;
67839;SDS011;54636;51.684;5.142;2022-08-03T09:48:49;17.67;;;2.83;;
67839;SDS011;54636;51.684;5.142;2022-08-03T09:51:14;13.25;;;2.85;;
67839;SDS011;54636;51.684;5.142;2022-08-03T09:53:43;11.48;;;3.13;;
67839;SDS011;54636;51.684;5.142;2022-08-03T09:56:09;9.32;;;2.42;;
67839;SDS011;54636;51.684;5.142;2022-08-03T09:58:43;11.85;;;3.03;;
67839;SDS011;54636;51.684;5.142;2022-08-03T10:01:10;7.05;;;2.35;;
67839;SDS011;54636;51.684;5.142;2022-08-03T10:03:37;11.98;;;2.80;;
67839;SDS011;54636;51.684;5.142;2022-08-03T10:06:13;17.05;;;3.72;;
67839;SDS011;54636;51.684;5.142;2022-08-03T10:08:41;15.70;;;2.60;;
67839;SDS011;54636;51.684;5.142;2022-08-03T10:11:06;14.32;;;2.95;;
67839;SDS011;54636;51.684;5.142;2022-08-03T10:13:32;14.10;;;2.90;;
67839;SDS011;54636;51.684;5.142;2022-08-03T10:15:57;14.00;;;3.22;;
67839;SDS011;54636;51.684;5.142;2022-08-03T10:18:23;16.85;;;3.00;;
67839;SDS011;54636;51.684;5.142;2022-08-03T10:20:48;12.80;;;2.38;;
67839;SDS011;54636;51.684;5.142;2022-08-03T10:23:17;13.40;;;3.45;;
67839;SDS011;54636;51.684;5.142;2022-08-03T10:25:44;13.75;;;3.42;;
67839;SDS011;54636;51.684;5.142;2022-08-03T10:28:15;10.95;;;3.30;;
67839;SDS011;54636;51.684;5.142;2022-08-03T10:30:43;18.80;;;3.35;;
67839;SDS011;54636;51.684;5.142;2022-08-03T10:33:16;19.92;;;3.20;;
67839;SDS011;54636;51.684;5.142;2022-08-03T10:35:43;19.58;;;3.67;;
67839;SDS011;54636;51.684;5.142;2022-08-03T10:38:22;15.00;;;3.70;;
67839;SDS011;54636;51.684;5.142;2022-08-03T10:41:02;14.73;;;3.30;;
67839;SDS011;54636;51.684;5.142;2022-08-03T10:43:41;14.27;;;3.45;;
67839;SDS011;54636;51.684;5.142;2022-08-03T10:46:13;23.25;;;3.03;;
67839;SDS011;54636;51.684;5.142;2022-08-03T10:48:42;21.10;;;3.50;;
67839;SDS011;54636;51.684;5.142;2022-08-03T10:51:08;13.88;;;3.15;;
67839;SDS011;54636;51.684;5.142;2022-08-03T10:53:38;20.38;;;3.60;;
67839;SDS011;54636;51.684;5.142;2022-08-03T10:56:06;14.45;;;3.28;;
67839;SDS011;54636;51.684;5.142;2022-08-03T10:59:17;13.68;;;2.95;;
67839;SDS011;54636;51.684;5.142;2022-08-03T11:02:02;18.17;;;3.25;;
67839;SDS011;54636;51.684;5.142;2022-08-03T11:04:32;16.35;;;2.88;;
67839;SDS011;54636;51.684;5.142;2022-08-03T11:07:16;15.18;;;3.25;;
67839;SDS011;54636;51.684;5.142;2022-08-03T11:09:43;13.10;;;2.92;;
67839;SDS011;54636;51.684;5.142;2022-08-03T11:12:23;11.60;;;3.25;;
67839;SDS011;54636;51.684;5.142;2022-08-03T11:14:50;21.42;;;3.35;;
67839;SDS011;54636;51.684;5.142;2022-08-03T11:17:17;14.93;;;2.83;;
67839;SDS011;54636;51.684;5.142;2022-08-03T11:19:44;12.63;;;2.75;;
67839;SDS011;54636;51.684;5.142;2022-08-03T11:22:11;12.15;;;3.28;;
67839;SDS011;54636;51.684;5.142;2022-08-03T11:35:06;17.35;;;2.95;;
67839;SDS011;54636;51.684;5.142;2022-08-03T11:37:33;12.90;;;3.05;;
67839;SDS011;54636;51.684;5.142;2022-08-03T11:39:58;8.85;;;2.47;;
67839;SDS011;54636;51.684;5.142;2022-08-03T11:42:36;10.18;;;2.90;;
67839;SDS011;54636;51.684;5.142;2022-08-03T11:45:02;10.40;;;2.85;;
67839;SDS011;54636;51.684;5.142;2022-08-03T11:52:26;13.38;;;2.50;;
67839;SDS011;54636;51.684;5.142;2022-08-03T11:54:57;11.82;;;2.15;;
67839;SDS011;54636;51.684;5.142;2022-08-03T11:57:30;8.60;;;2.53;;
67839;SDS011;54636;51.684;5.142;2022-08-03T11:59:56;6.88;;;2.38;;
67839;SDS011;54636;51.684;5.142;2022-08-03T12:02:21;14.23;;;2.33;;
67839;SDS011;54636;51.684;5.142;2022-08-03T12:07:24;11.90;;;2.55;;
67839;SDS011;54636;51.684;5.142;2022-08-03T12:10:10;8.55;;;2.17;;
67839;SDS011;54636;51.684;5.142;2022-08-03T12:12:38;9.43;;;2.25;;
67839;SDS011;54636;51.684;5.142;2022-08-03T12:15:05;9.15;;;2.40;;
67839;SDS011;54636;51.684;5.142;2022-08-03T12:17:37;9.20;;;2.55;;
67839;SDS011;54636;51.684;5.142;2022-08-03T12:20:05;11.27;;;2.67;;
67839;SDS011;54636;51.684;5.142;2022-08-03T12:22:33;7.90;;;2.40;;
67839;SDS011;54636;51.684;5.142;2022-08-03T12:25:01;13.02;;;2.50;;
67839;SDS011;54636;51.684;5.142;2022-08-03T12:27:27;6.80;;;2.38;;
67839;SDS011;54636;51.684;5.142;2022-08-03T12:29:56;10.40;;;2.47;;
67839;SDS011;54636;51.684;5.142;2022-08-03T12:32:23;5.95;;;2.38;;
67839;SDS011;54636;51.684;5.142;2022-08-03T12:34:50;8.45;;;2.13;;
67839;SDS011;54636;51.684;5.142;2022-08-03T12:37:19;8.50;;;2.67;;
67839;SDS011;54636;51.684;5.142;2022-08-03T12:39:53;7.65;;;2.20;;
67839;SDS011;54636;51.684;5.142;2022-08-03T12:42:20;13.30;;;2.20;;
67839;SDS011;54636;51.684;5.142;2022-08-03T12:44:45;9.57;;;2.47;;
67839;SDS011;54636;51.684;5.142;2022-08-03T12:47:13;13.30;;;2.10;;
67839;SDS011;54636;51.684;5.142;2022-08-03T12:49:46;12.55;;;2.33;;
67839;SDS011;54636;51.684;5.142;2022-08-03T12:52:13;8.27;;;2.38;;
67839;SDS011;54636;51.684;5.142;2022-08-03T12:54:40;5.50;;;2.15;;
67839;SDS011;54636;51.684;5.142;2022-08-03T12:57:08;12.23;;;2.50;;
67839;SDS011;54636;51.684;5.142;2022-08-03T12:59:39;9.27;;;2.17;;
67839;SDS011;54636;51.684;5.142;2022-08-03T13:02:22;7.88;;;2.00;;
67839;SDS011;54636;51.684;5.142;2022-08-03T13:04:52;9.05;;;2.40;;
67839;SDS011;54636;51.684;5.142;2022-08-03T13:07:18;11.85;;;2.10;;
67839;SDS011;54636;51.684;5.142;2022-08-03T13:09:46;8.27;;;1.90;;
67839;SDS011;54636;51.684;5.142;2022-08-03T13:12:23;8.82;;;1.92;;
67839;SDS011;54636;51.684;5.142;2022-08-03T13:14:51;5.88;;;2.03;;
67839;SDS011;54636;51.684;5.142;2022-08-03T13:19:44;8.57;;;2.38;;
67839;SDS011;54636;51.684;5.142;2022-08-03T13:22:11;10.95;;;1.92;;
67839;SDS011;54636;51.684;5.142;2022-08-03T13:24:39;6.80;;;1.60;;
67839;SDS011;54636;51.684;5.142;2022-08-03T13:27:04;4.13;;;1.77;;
67839;SDS011;54636;51.684;5.142;2022-08-03T13:29:31;14.15;;;3.00;;
67839;SDS011;54636;51.684;5.142;2022-08-03T13:31:57;8.27;;;2.22;;
67839;SDS011;54636;51.684;5.142;2022-08-03T13:34:23;5.65;;;2.05;;
67839;SDS011;54636;51.684;5.142;2022-08-03T13:36:48;6.70;;;1.92;;
67839;SDS011;54636;51.684;5.142;2022-08-03T13:39:13;7.57;;;2.22;;
67839;SDS011;54636;51.684;5.142;2022-08-03T13:41:40;6.50;;;2.30;;
67839;SDS011;54636;51.684;5.142;2022-08-03T13:44:05;12.98;;;2.03;;
67839;SDS011;54636;51.684;5.142;2022-08-03T13:46:30;11.88;;;2.53;;
67839;SDS011;54636;51.684;5.142;2022-08-03T13:48:56;6.70;;;1.70;;
67839;SDS011;54636;51.684;5.142;2022-08-03T13:51:21;8.13;;;2.20;;
67839;SDS011;54636;51.684;5.142;2022-08-03T13:53:47;7.88;;;1.92;;
67839;SDS011;54636;51.684;5.142;2022-08-03T13:56:13;6.55;;;2.55;;
67839;SDS011;54636;51.684;5.142;2022-08-03T13:58:38;10.48;;;1.98;;
67839;SDS011;54636;51.684;5.142;2022-08-03T14:01:04;5.88;;;1.85;;
67839;SDS011;54636;51.684;5.142;2022-08-03T14:03:30;8.93;;;2.38;;
67839;SDS011;54636;51.684;5.142;2022-08-03T14:05:55;6.30;;;1.67;;
67839;SDS011;54636;51.684;5.142;2022-08-03T14:08:20;10.02;;;2.25;;
67839;SDS011;54636;51.684;5.142;2022-08-03T14:10:46;8.80;;;2.67;;
67839;SDS011;54636;51.684;5.142;2022-08-03T14:13:11;7.50;;;2.22;;
67839;SDS011;54636;51.684;5.142;2022-08-03T14:15:39;7.20;;;2.00;;
67839;SDS011;54636;51.684;5.142;2022-08-03T14:18:05;13.10;;;2.47;;
67839;SDS011;54636;51.684;5.142;2022-08-03T14:20:33;13.95;;;1.90;;
67839;SDS011;54636;51.684;5.142;2022-08-03T14:22:59;13.30;;;2.38;;
67839;SDS011;54636;51.684;5.142;2022-08-03T14:25:24;6.45;;;2.22;;
67839;SDS011;54636;51.684;5.142;2022-08-03T14:27:50;8.50;;;2.05;;
67839;SDS011;54636;51.684;5.142;2022-08-03T14:30:15;10.80;;;2.22;;
67839;SDS011;54636;51.684;5.142;2022-08-03T14:32:41;10.40;;;2.05;;
67839;SDS011;54636;51.684;5.142;2022-08-03T14:35:06;5.35;;;1.92;;
67839;SDS011;54636;51.684;5.142;2022-08-03T14:37:32;13.23;;;2.60;;
67839;SDS011;54636;51.684;5.142;2022-08-03T14:39:58;13.63;;;2.63;;
67839;SDS011;54636;51.684;5.142;2022-08-03T14:42:23;9.73;;;2.28;;
67839;SDS011;54636;51.684;5.142;2022-08-03T14:44:49;7.78;;;2.22;;
67839;SDS011;54636;51.684;5.142;2022-08-03T14:47:14;8.18;;;2.28;;
67839;SDS011;54636;51.684;5.142;2022-08-03T14:49:40;7.10;;;2.55;;
67839;SDS011;54636;51.684;5.142;2022-08-03T14:52:06;8.10;;;2.40;;
67839;SDS011;54636;51.684;5.142;2022-08-03T14:54:31;11.15;;;2.80;;
67839;SDS011;54636;51.684;5.142;2022-08-03T14:56:57;6.63;;;2.35;;
67839;SDS011;54636;51.684;5.142;2022-08-03T14:59:23;10.00;;;2.55;;
67839;SDS011;54636;51.684;5.142;2022-08-03T15:01:48;14.15;;;2.33;;
67839;SDS011;54636;51.684;5.142;2022-08-03T15:04:14;8.13;;;2.72;;
67839;SDS011;54636;51.684;5.142;2022-08-03T15:06:39;7.85;;;2.30;;
67839;SDS011;54636;51.684;5.142;2022-08-03T15:09:04;7.53;;;2.20;;
67839;SDS011;54636;51.684;5.142;2022-08-03T15:11:30;9.50;;;2.35;;
67839;SDS011;54636;51.684;5.142;2022-08-03T15:13:55;14.35;;;2.42;;
67839;SDS011;54636;51.684;5.142;2022-08-03T15:16:21;8.98;;;2.53;;
67839;SDS011;54636;51.684;5.142;2022-08-03T15:18:46;8.35;;;2.60;;